Time;durP1;ratioP1;P1;durP2;ratioP2;P2;SDS_P1;SDS_P2;PMS_P1;PMS_P2;Temp;Humidity;BMP_temperature;BMP_pressure;BME280_temperature;BME280_humidity;BME280_pressure;Samples;Min_cycle;Max_cycle;Signal;HPM_P1;HPM_P2
2021/09/02 00:01:20;;;;;;;9.20;5.88;;;;;;;17.23;59.25;101024.88;6039036;23;20476;-90
2021/09/02 00:03:47;;;;;;;11.88;5.55;;;;;;;17.22;59.08;101022.31;6039394;23;20030;-89
2021/09/02 00:06:14;;;;;;;11.25;6.50;;;;;;;17.21;59.36;101028.59;6014718;23;20028;-90
2021/09/02 00:08:40;;;;;;;8.23;5.15;;;;;;;17.19;59.24;101029.56;6014904;23;20027;-89
2021/09/02 00:11:07;;;;;;;10.32;5.47;;;;;;;17.18;59.29;101022.53;6014066;23;20019;-91
2021/09/02 00:13:34;;;;;;;12.75;6.38;;;;;;;17.18;59.38;101024.31;6039621;23;20027;-90
2021/09/02 00:16:01;;;;;;;8.75;5.90;;;;;;;17.17;59.35;101026.16;6014447;23;20030;-90
2021/09/02 00:18:29;;;;;;;12.77;6.53;;;;;;;17.17;59.45;101028.81;6015461;23;20023;-89
2021/09/02 00:20:56;;;;;;;11.65;5.70;;;;;;;17.15;59.39;101027.19;6016237;23;20035;-90
2021/09/02 00:23:22;;;;;;;9.90;5.85;;;;;;;17.14;59.70;101023.69;6016276;23;20122;-89
2021/09/02 00:25:49;;;;;;;8.85;5.53;;;;;;;17.13;59.62;101027.31;6016371;23;20023;-89
2021/09/02 00:28:16;;;;;;;10.07;5.53;;;;;;;17.12;59.44;101019.41;6016468;23;20023;-90
2021/09/02 00:30:43;;;;;;;12.38;5.47;;;;;;;17.10;59.40;101027.50;6040631;23;20042;-90
2021/09/02 00:33:16;;;;;;;10.65;6.05;;;;;;;17.06;60.30;101033.97;6015970;23;20023;-89
2021/09/02 00:35:44;;;;;;;8.40;5.38;;;;;;;17.08;59.88;101028.53;6015913;23;20023;-90
2021/09/02 00:38:11;;;;;;;10.25;5.13;;;;;;;17.08;59.70;101020.56;6016120;23;20027;-90
2021/09/02 00:40:38;;;;;;;10.85;5.90;;;;;;;17.07;60.08;101025.03;6017835;23;20033;-90
2021/09/02 00:43:05;;;;;;;10.30;5.65;;;;;;;17.07;60.04;101025.03;6015730;23;20027;-90
2021/09/02 00:45:32;;;;;;;9.68;5.13;;;;;;;17.06;60.15;101021.53;6016039;23;20027;-90
2021/09/02 00:47:59;;;;;;;9.20;5.18;;;;;;;17.06;60.13;101018.00;6016317;23;20023;-89
2021/09/02 00:50:29;;;;;;;9.88;5.43;;;;;;;17.05;60.41;101017.13;6040695;23;20023;-89
2021/09/02 00:53:00;;;;;;;14.35;5.30;;;;;;;17.03;60.78;101013.69;6016087;23;20046;-90
2021/09/02 00:55:28;;;;;;;10.65;5.45;;;;;;;17.04;60.58;101011.88;6015976;23;20367;-90
2021/09/02 00:57:55;;;;;;;8.07;4.93;;;;;;;17.04;60.19;101019.84;6041090;23;20361;-90
2021/09/02 01:00:22;;;;;;;8.70;5.32;;;;;;;17.04;60.37;101022.50;6015808;23;20023;-91
2021/09/02 01:02:48;;;;;;;9.32;5.20;;;;;;;17.03;60.29;101015.50;6015842;23;20011;-91
2021/09/02 01:05:20;;;;;;;12.88;5.40;;;;;;;17.02;60.59;101019.97;6015992;23;20054;-90
2021/09/02 01:07:47;;;;;;;8.57;4.68;;;;;;;17.02;60.32;101016.44;6015928;23;20023;-90
2021/09/02 01:10:14;;;;;;;9.18;5.53;;;;;;;17.00;60.59;101013.88;6015821;23;20023;-90
2021/09/02 01:12:50;;;;;;;10.75;5.07;;;;;;;17.00;60.61;101016.53;6015570;23;20023;-90
2021/09/02 01:15:23;;;;;;;8.85;5.10;;;;;;;17.00;60.57;101016.53;6016104;23;20082;-90
2021/09/02 01:17:53;;;;;;;7.13;4.43;;;;;;;16.98;60.29;101013.16;6013541;23;20024;-91
2021/09/02 01:20:22;;;;;;;9.77;5.13;;;;;;;16.98;59.84;101009.63;5988138;23;20035;-90
2021/09/02 01:22:51;;;;;;;8.70;4.95;;;;;;;16.95;59.88;101016.00;5987833;23;20024;-89
2021/09/02 01:25:21;;;;;;;9.02;4.95;;;;;;;16.92;60.06;101016.19;6012054;23;20027;-90
2021/09/02 01:27:51;;;;;;;8.93;5.35;;;;;;;16.87;60.04;101008.50;5987420;23;20118;-90
2021/09/02 01:30:18;;;;;;;8.70;4.50;;;;;;;16.87;60.02;101018.28;6011410;23;20027;-90
2021/09/02 01:32:47;;;;;;;9.48;4.53;;;;;;;16.84;59.91;101010.50;5987663;23;20027;-90
2021/09/02 01:35:14;;;;;;;6.97;4.60;;;;;;;16.79;59.60;101008.97;6012273;23;20023;-89
2021/09/02 01:37:42;;;;;;;8.18;5.03;;;;;;;16.74;59.81;101013.75;6011934;23;20032;-90
2021/09/02 01:40:18;;;;;;;8.45;4.43;;;;;;;16.68;60.17;101009.66;5987936;23;20046;-89
2021/09/02 01:42:45;;;;;;;7.57;4.85;;;;;;;16.67;59.54;101015.06;6012357;23;20030;-90
2021/09/02 01:45:12;;;;;;;10.13;4.32;;;;;;;16.64;59.64;101012.63;5987491;23;20028;-90
2021/09/02 01:47:40;;;;;;;6.70;4.45;;;;;;;16.60;59.54;101008.44;5986930;23;20028;-89
2021/09/02 01:50:11;;;;;;;7.88;4.10;;;;;;;16.54;59.96;101013.19;6012208;23;20086;-89
2021/09/02 01:52:40;;;;;;;6.43;4.80;;;;;;;16.52;59.65;101015.09;6012135;23;20528;-89
2021/09/02 01:55:08;;;;;;;6.38;4.78;;;;;;;16.49;59.79;101017.91;6011617;23;20028;-89
2021/09/02 01:57:37;;;;;;;8.43;4.75;;;;;;;16.47;59.57;101019.84;5986916;23;20487;-90
2021/09/02 02:00:05;;;;;;;7.10;4.80;;;;;;;16.42;59.57;101013.97;5987442;23;20365;-90
2021/09/02 02:02:32;;;;;;;7.03;4.75;;;;;;;16.39;59.58;101014.13;5987011;23;20031;-90
2021/09/02 02:04:59;;;;;;;7.72;4.93;;;;;;;16.35;59.71;101013.47;5987191;23;20038;-90
2021/09/02 02:07:26;;;;;;;10.88;4.85;;;;;;;16.32;60.09;101010.13;6012021;23;20028;-90
2021/09/02 02:09:53;;;;;;;8.48;5.20;;;;;;;16.30;60.18;101009.38;6012136;23;20027;-89
2021/09/02 02:12:20;;;;;;;11.23;5.82;;;;;;;16.27;60.25;101002.47;6011905;23;20020;-88
2021/09/02 02:14:46;;;;;;;10.80;5.50;;;;;;;16.26;60.49;101006.06;6011948;23;20088;-90
2021/09/02 02:17:13;;;;;;;7.38;5.05;;;;;;;16.24;60.45;101000.84;6010727;23;20356;-90
2021/09/02 02:19:40;;;;;;;8.25;5.00;;;;;;;16.23;60.38;101001.78;6009349;23;20042;-90
2021/09/02 02:22:07;;;;;;;7.50;4.75;;;;;;;16.24;60.29;101007.97;6015297;23;20348;-90
2021/09/02 02:24:33;;;;;;;10.15;5.40;;;;;;;16.21;60.66;100997.50;6014662;23;20028;-90
2021/09/02 02:27:00;;;;;;;11.75;5.90;;;;;;;16.21;60.63;101003.69;6014928;23;20027;-89
2021/09/02 02:29:26;;;;;;;7.32;5.03;;;;;;;16.19;60.53;100996.75;6015408;23;20023;-89
2021/09/02 02:31:53;;;;;;;6.25;4.25;;;;;;;16.19;60.13;100997.63;6015374;23;20019;-89
2021/09/02 02:34:20;;;;;;;6.63;4.13;;;;;;;16.18;60.39;100995.06;6039832;23;20826;-90
2021/09/02 02:36:46;;;;;;;10.73;5.03;;;;;;;16.17;60.53;100995.97;6015079;23;20448;-89
2021/09/02 02:39:13;;;;;;;7.40;4.93;;;;;;;16.14;60.66;100989.94;6039667;23;20483;-89
2021/09/02 02:41:40;;;;;;;8.70;4.20;;;;;;;16.13;60.40;100995.31;6014259;23;20087;-89
2021/09/02 02:44:06;;;;;;;11.68;4.75;;;;;;;16.12;60.36;100988.31;6014742;23;20030;-89
2021/09/02 02:46:33;;;;;;;10.15;4.70;;;;;;;16.10;60.51;100984.88;6040226;23;20030;-90
2021/09/02 02:49:00;;;;;;;9.15;5.28;;;;;;;16.10;60.57;100990.19;6040071;23;20047;-90
2021/09/02 02:51:26;;;;;;;9.35;4.68;;;;;;;16.09;60.61;100986.69;6014552;23;20034;-90
2021/09/02 02:53:53;;;;;;;10.70;4.95;;;;;;;16.07;60.79;100985.94;6015098;23;20355;-90
2021/09/02 02:56:21;;;;;;;7.15;4.68;;;;;;;16.08;60.94;100981.47;6039843;23;20027;-90
2021/09/02 02:58:48;;;;;;;9.10;4.70;;;;;;;16.07;60.94;100985.09;6014657;23;20027;-90
2021/09/02 03:01:15;;;;;;;10.63;5.07;;;;;;;16.08;61.04;100973.50;6014294;23;20083;-90
2021/09/02 03:03:42;;;;;;;9.80;5.53;;;;;;;16.08;61.12;100970.84;6014992;23;20087;-89
2021/09/02 03:06:10;;;;;;;8.00;5.53;;;;;;;16.07;61.12;100964.69;6015275;23;20028;-89
2021/09/02 03:08:37;;;;;;;8.93;5.10;;;;;;;16.07;61.43;100975.28;6039865;23;20027;-89
2021/09/02 03:11:03;;;;;;;9.48;5.57;;;;;;;16.06;61.38;100964.75;6014824;23;20030;-89
2021/09/02 03:13:30;;;;;;;9.98;5.05;;;;;;;16.06;61.43;100962.97;6014232;23;20022;-90
2021/09/02 03:15:57;;;;;;;9.82;5.25;;;;;;;16.07;61.14;100963.84;6014967;23;20325;-90
2021/09/02 03:18:23;;;;;;;8.82;5.10;;;;;;;16.05;61.36;100960.41;6014293;23;20023;-89
2021/09/02 03:20:50;;;;;;;8.27;5.35;;;;;;;16.05;61.28;100965.72;6014806;23;20028;-90
2021/09/02 03:23:17;;;;;;;11.13;5.63;;;;;;;16.05;61.39;100961.28;6014453;23;20079;-89
2021/09/02 03:25:43;;;;;;;10.75;6.00;;;;;;;16.04;61.48;100958.72;6039597;23;20027;-89
2021/09/02 03:28:10;;;;;;;11.98;5.88;;;;;;;16.04;61.58;100967.53;6014659;23;20023;-89
2021/09/02 03:30:36;;;;;;;8.70;4.45;;;;;;;16.02;61.33;100970.28;6014775;23;20023;-89
2021/09/02 03:33:03;;;;;;;10.10;5.50;;;;;;;16.01;61.42;100973.88;6039425;23;20408;-89
2021/09/02 03:35:30;;;;;;;11.30;5.45;;;;;;;16.01;61.61;100971.22;6039411;23;20046;-89
2021/09/02 03:37:56;;;;;;;7.65;4.57;;;;;;;15.99;61.18;100975.78;6039179;23;20027;-89
2021/09/02 03:40:23;;;;;;;7.57;5.13;;;;;;;15.99;61.58;100973.13;6014601;23;20023;-89
2021/09/02 03:42:50;;;;;;;7.93;5.55;;;;;;;15.98;61.35;100976.72;6014312;23;20024;-90
2021/09/02 03:45:16;;;;;;;7.90;5.35;;;;;;;15.95;61.21;100979.56;6039192;23;20030;-89
2021/09/02 03:47:47;;;;;;;8.05;5.18;;;;;;;15.93;61.54;100976.13;6038983;23;20078;-89
2021/09/02 03:50:16;;;;;;;10.57;5.63;;;;;;;15.93;61.30;100972.59;6038987;23;20023;-89
2021/09/02 03:52:43;;;;;;;9.80;5.70;;;;;;;15.92;61.15;100978.88;6039212;23;20098;-89
2021/09/02 03:55:11;;;;;;;9.20;5.75;;;;;;;15.88;61.36;100978.19;6038994;23;20077;-89
2021/09/02 03:57:39;;;;;;;9.63;6.30;;;;;;;15.86;61.29;100978.25;6014153;23;20523;-89
2021/09/02 04:00:08;;;;;;;11.73;6.97;;;;;;;15.85;61.81;100978.38;6014562;23;20031;-89
2021/09/02 04:02:35;;;;;;;14.38;8.15;;;;;;;15.85;61.78;100978.38;6039453;23;20034;-89
2021/09/02 04:05:04;;;;;;;10.20;6.70;;;;;;;15.84;61.56;100976.66;6039166;23;20028;-89
2021/09/02 04:07:31;;;;;;;10.25;7.35;;;;;;;15.83;61.67;100978.47;6014390;23;20091;-89
2021/09/02 04:09:58;;;;;;;13.77;7.90;;;;;;;15.83;61.86;100977.59;6039163;23;20352;-90
2021/09/02 04:12:27;;;;;;;11.05;7.18;;;;;;;15.81;61.68;100971.53;6014416;23;20027;-89
2021/09/02 04:14:54;;;;;;;12.10;7.45;;;;;;;15.82;61.62;100975.91;6039198;23;20027;-89
2021/09/02 04:17:20;;;;;;;11.05;7.28;;;;;;;15.81;61.80;100980.34;6014257;23;20023;-89
2021/09/02 04:19:47;;;;;;;12.82;6.93;;;;;;;15.80;61.64;100983.09;6013926;23;20043;-89
2021/09/02 04:22:13;;;;;;;10.50;6.72;;;;;;;15.79;61.62;100987.56;6039059;23;20405;-89
2021/09/02 04:24:40;;;;;;;12.05;7.85;;;;;;;15.79;61.63;100984.03;6014333;23;20035;-89
2021/09/02 04:27:08;;;;;;;9.98;7.07;;;;;;;15.77;61.66;100982.34;6014088;23;20031;-89
2021/09/02 04:29:34;;;;;;;11.13;6.47;;;;;;;15.77;61.48;100981.47;6014336;23;20055;-89
2021/09/02 04:32:01;;;;;;;8.55;5.75;;;;;;;15.73;61.49;100978.16;6013886;23;20031;-89
2021/09/02 04:34:27;;;;;;;8.35;5.57;;;;;;;15.73;61.43;100980.81;6013955;23;20359;-89
2021/09/02 04:36:54;;;;;;;9.02;5.15;;;;;;;15.72;61.36;100975.59;6038768;23;20083;-88
2021/09/02 04:39:20;;;;;;;11.13;6.30;;;;;;;15.70;61.44;100983.63;6038757;23;20490;-89
2021/09/02 04:41:47;;;;;;;10.00;6.90;;;;;;;15.68;61.33;100977.56;6014132;23;20027;-88
2021/09/02 04:44:14;;;;;;;12.38;6.55;;;;;;;15.67;61.56;100985.63;6038787;23;20023;-89
2021/09/02 04:46:40;;;;;;;10.32;7.15;;;;;;;15.65;61.63;100985.72;6039182;23;20034;-88
2021/09/02 04:49:07;;;;;;;11.05;6.38;;;;;;;15.66;61.54;100991.88;6039117;23;20079;-88
2021/09/02 04:51:33;;;;;;;8.05;5.93;;;;;;;15.64;61.51;100987.50;6038964;23;20086;-88
2021/09/02 04:54:00;;;;;;;10.88;6.65;;;;;;;15.62;61.52;100988.53;6014250;23;20024;-89
2021/09/02 04:56:27;;;;;;;9.15;5.75;;;;;;;15.61;61.58;100992.16;6014389;23;20023;-89
2021/09/02 04:58:53;;;;;;;11.02;6.35;;;;;;;15.59;61.52;100994.03;6014591;23;20027;-89
2021/09/02 05:01:20;;;;;;;9.50;6.22;;;;;;;15.57;61.44;100995.91;6038968;23;20027;-89
2021/09/02 05:03:47;;;;;;;12.57;6.88;;;;;;;15.54;61.61;100985.47;6014232;23;20030;-89
2021/09/02 05:06:13;;;;;;;11.32;6.90;;;;;;;15.54;61.59;100990.78;6014535;23;20486;-89
2021/09/02 05:08:40;;;;;;;9.60;6.80;;;;;;;15.52;61.65;100990.03;6015419;23;20027;-89
2021/09/02 05:11:06;;;;;;;9.02;6.40;;;;;;;15.50;61.57;100988.34;6040331;23;20030;-89
2021/09/02 05:13:33;;;;;;;9.65;6.88;;;;;;;15.48;61.64;100984.06;6015203;23;20032;-89
2021/09/02 05:15:59;;;;;;;8.93;6.60;;;;;;;15.46;61.73;100986.78;6039139;23;20035;-88
2021/09/02 05:18:26;;;;;;;9.75;6.20;;;;;;;15.46;61.70;100988.59;6014852;23;20106;-89
2021/09/02 05:20:53;;;;;;;11.30;6.45;;;;;;;15.45;61.80;100977.13;6039547;23;20399;-88
2021/09/02 05:23:19;;;;;;;8.82;6.18;;;;;;;15.45;61.96;100987.75;6039418;23;20039;-88
2021/09/02 05:25:46;;;;;;;8.98;5.90;;;;;;;15.45;61.93;100990.41;6039689;23;20027;-89
2021/09/02 05:28:13;;;;;;;9.48;5.78;;;;;;;15.45;62.04;100987.75;6014819;23;20027;-88
2021/09/02 05:30:39;;;;;;;11.05;5.30;;;;;;;15.46;62.20;100996.53;6039585;23;20023;-88
2021/09/02 05:33:06;;;;;;;11.90;6.55;;;;;;;15.47;62.15;100998.25;6039562;23;20329;-88
2021/09/02 05:35:33;;;;;;;9.32;6.40;;;;;;;15.49;62.50;101005.19;6039600;23;20023;-88
2021/09/02 05:37:59;;;;;;;10.02;5.97;;;;;;;15.48;62.49;101003.47;6039730;23;20031;-88
2021/09/02 05:40:26;;;;;;;10.65;5.68;;;;;;;15.50;62.48;101009.56;6039364;23;20038;-88
2021/09/02 05:42:52;;;;;;;7.80;5.13;;;;;;;15.53;62.53;101012.97;6014322;23;20024;-88
2021/09/02 05:45:19;;;;;;;9.50;6.63;;;;;;;15.55;62.68;101011.09;6039563;23;20389;-87
2021/09/02 05:47:46;;;;;;;8.27;5.78;;;;;;;15.59;62.89;101007.31;6040217;23;20023;-88
2021/09/02 05:50:12;;;;;;;8.40;5.72;;;;;;;15.60;62.85;101009.03;6014287;23;20027;-88
2021/09/02 05:52:39;;;;;;;10.18;5.95;;;;;;;15.64;63.05;101015.88;6039455;23;20031;-88
2021/09/02 05:55:06;;;;;;;9.55;6.15;;;;;;;15.67;63.13;101014.81;6039248;23;20094;-89
2021/09/02 05:57:33;;;;;;;11.43;7.35;;;;;;;15.70;63.52;101018.16;6039617;23;20027;-88
2021/09/02 06:00:00;;;;;;;11.32;6.72;;;;;;;15.74;64.10;101026.81;6014036;23;20046;-88
2021/09/02 06:02:26;;;;;;;10.57;6.18;;;;;;;15.79;64.04;101018.56;6039422;23;20484;-88
2021/09/02 06:04:53;;;;;;;8.65;5.53;;;;;;;15.85;64.17;101026.16;6013951;23;20107;-88
2021/09/02 06:07:20;;;;;;;9.35;5.93;;;;;;;15.89;63.99;101017.09;6039870;23;20362;-88
2021/09/02 06:09:46;;;;;;;7.60;5.50;;;;;;;15.94;63.93;101012.38;6039437;23;20030;-88
2021/09/02 06:12:13;;;;;;;8.48;5.20;;;;;;;16.00;63.95;101017.31;6013789;23;20102;-88
2021/09/02 06:14:39;;;;;;;8.48;5.10;;;;;;;16.05;63.95;101014.38;6014016;23;20035;-88
2021/09/02 06:17:06;;;;;;;6.32;4.65;;;;;;;16.10;63.94;101014.97;6038883;23;20027;-88
2021/09/02 06:19:33;;;;;;;8.25;4.78;;;;;;;16.16;63.97;101021.72;6013821;23;20034;-88
2021/09/02 06:22:00;;;;;;;7.80;4.90;;;;;;;16.21;63.90;101018.75;6038907;23;20491;-88
2021/09/02 06:24:26;;;;;;;10.52;4.88;;;;;;;16.25;64.11;101015.84;6014301;23;20077;-88
2021/09/02 06:26:53;;;;;;;7.95;5.10;;;;;;;16.31;64.19;101011.09;6038775;23;20535;-88
2021/09/02 06:29:19;;;;;;;8.77;5.10;;;;;;;16.35;64.19;101013.47;6013765;23;20038;-88
2021/09/02 06:31:46;;;;;;;6.18;4.82;;;;;;;16.40;64.36;101008.72;6038618;23;20027;-88
2021/09/02 06:34:13;;;;;;;8.73;4.72;;;;;;;16.47;64.27;101000.38;6013456;23;20260;-88
2021/09/02 06:36:39;;;;;;;7.38;4.53;;;;;;;16.51;64.29;101008.06;6012765;23;20042;-88
2021/09/02 06:39:06;;;;;;;9.55;4.95;;;;;;;16.56;64.47;100999.78;6013669;23;20082;-88
2021/09/02 06:41:33;;;;;;;7.97;4.70;;;;;;;16.61;64.48;100997.72;6038649;23;20031;-88
2021/09/02 06:43:59;;;;;;;10.65;5.57;;;;;;;16.66;64.72;101002.72;6038847;23;20083;-88
2021/09/02 06:46:26;;;;;;;11.32;5.95;;;;;;;16.72;64.83;101018.31;6037823;23;20027;-88
2021/09/02 06:48:53;;;;;;;10.30;5.90;;;;;;;16.77;65.05;101016.22;6037354;23;20392;-88
2021/09/02 06:51:20;;;;;;;9.55;5.53;;;;;;;16.83;65.04;101012.31;6012774;23;20475;-89
2021/09/02 06:53:47;;;;;;;9.20;5.40;;;;;;;16.89;64.83;101019.91;6012214;23;20027;-88
2021/09/02 06:56:14;;;;;;;11.40;5.07;;;;;;;16.95;64.97;101023.97;6012770;23;20020;-88
2021/09/02 06:58:40;;;;;;;13.23;6.20;;;;;;;17.00;65.03;101027.19;6037822;23;20035;-88
2021/09/02 07:01:07;;;;;;;10.77;5.78;;;;;;;17.05;65.07;101025.09;6037731;23;20031;-88
2021/09/02 07:03:34;;;;;;;11.40;6.03;;;;;;;17.13;65.05;101023.78;6013600;23;20020;-89
2021/09/02 07:06:00;;;;;;;13.60;6.35;;;;;;;17.18;65.28;101022.53;6038335;23;20037;-88
2021/09/02 07:08:27;;;;;;;12.55;6.85;;;;;;;17.24;65.25;101018.63;6013359;23;20539;-88
2021/09/02 07:10:54;;;;;;;16.15;8.13;;;;;;;17.31;65.29;101021.72;6038587;23;20027;-88
2021/09/02 07:13:20;;;;;;;11.80;6.78;;;;;;;17.36;65.41;101021.41;6013475;23;20098;-88
2021/09/02 07:15:47;;;;;;;25.30;8.98;;;;;;;17.43;65.39;101028.06;6013466;23;20409;-89
2021/09/02 07:18:13;;;;;;;14.15;7.68;;;;;;;17.50;65.26;101026.72;6031228;23;20055;-89
2021/09/02 07:20:42;;;;;;;14.13;7.53;;;;;;;17.57;65.29;101025.31;5985569;23;20102;-88
2021/09/02 07:23:09;;;;;;;16.70;8.50;;;;;;;17.66;65.72;101028.34;5985476;23;20023;-89
2021/09/02 07:25:35;;;;;;;15.27;8.68;;;;;;;17.74;65.71;101031.34;5985665;23;20031;-89
2021/09/02 07:28:02;;;;;;;16.13;8.88;;;;;;;17.84;65.62;101036.91;5984753;23;20031;-89
2021/09/02 07:30:29;;;;;;;19.92;9.63;;;;;;;17.92;65.92;101028.38;6009968;23;20031;-90
2021/09/02 07:32:55;;;;;;;14.50;8.80;;;;;;;18.03;65.59;101032.97;6009748;23;20020;-89
2021/09/02 07:35:22;;;;;;;15.55;8.02;;;;;;;18.12;65.28;101028.88;6010176;23;20027;-90
2021/09/02 07:37:49;;;;;;;16.10;8.60;;;;;;;18.20;65.15;101027.38;5984959;23;20456;-89
2021/09/02 07:40:16;;;;;;;19.33;9.68;;;;;;;18.29;65.06;101028.56;6010220;23;20028;-89
2021/09/02 07:42:42;;;;;;;18.90;9.07;;;;;;;18.38;65.03;101034.22;5985643;23;20471;-89
2021/09/02 07:45:10;;;;;;;15.80;8.80;;;;;;;18.46;64.71;101027.38;5984865;23;20039;-89
2021/09/02 07:47:36;;;;;;;20.50;10.27;;;;;;;18.55;64.86;101039.22;5985295;23;20047;-89
2021/09/02 07:50:05;;;;;;;13.55;8.50;;;;;;;18.61;64.56;101036.13;5984650;23;20039;-90
2021/09/02 07:52:38;;;;;;;21.05;10.35;;;;;;;18.70;64.40;101033.75;5985616;23;20024;-90
2021/09/02 07:55:10;;;;;;;16.77;10.20;;;;;;;18.76;64.25;101025.31;5985216;23;20023;-90
2021/09/02 07:57:37;;;;;;;16.98;9.15;;;;;;;18.84;64.07;101030.09;6010491;23;20020;-90
2021/09/02 08:00:04;;;;;;;18.55;9.98;;;;;;;18.90;63.61;101029.66;6009299;23;20461;-90
2021/09/02 08:02:32;;;;;;;35.33;12.68;;;;;;;18.97;63.61;101040.75;6009920;23;20023;-90
2021/09/02 08:04:58;;;;;;;14.50;9.38;;;;;;;19.01;63.38;101032.41;5984869;23;20582;-90
2021/09/02 08:07:25;;;;;;;12.23;8.02;;;;;;;19.08;63.11;101029.31;5985737;23;20028;-92
2021/09/02 08:09:52;;;;;;;12.43;8.38;;;;;;;19.15;63.14;101038.59;5985391;23;20027;-92
2021/09/02 08:12:18;;;;;;;14.63;8.32;;;;;;;19.21;63.04;101042.63;5985256;23;20023;-90
2021/09/02 08:14:45;;;;;;;12.98;8.23;;;;;;;19.29;63.44;101034.06;5984685;23;20016;-90
2021/09/02 08:17:12;;;;;;;12.45;7.57;;;;;;;19.37;63.15;101035.16;5985493;23;20023;-92
2021/09/02 08:19:38;;;;;;;13.13;6.88;;;;;;;19.48;63.02;101036.22;6008630;23;20091;-92
2021/09/02 08:22:05;;;;;;;12.93;6.85;;;;;;;19.57;62.44;101045.34;6013491;23;20038;-91
2021/09/02 08:24:32;;;;;;;12.52;7.18;;;;;;;19.66;62.07;101041.97;6013496;23;20027;-91
2021/09/02 08:26:58;;;;;;;12.73;7.72;;;;;;;19.74;61.94;101044.09;6013643;23;20024;-91
2021/09/02 08:29:25;;;;;;;11.55;7.60;;;;;;;19.82;61.66;101040.81;6013722;23;20035;-91
2021/09/02 08:31:52;;;;;;;14.35;8.00;;;;;;;19.89;61.50;101036.72;6014247;23;20088;-93
2021/09/02 08:34:18;;;;;;;17.60;8.98;;;;;;;19.96;61.44;101043.28;6013204;23;20015;-91
2021/09/02 08:36:45;;;;;;;16.42;8.40;;;;;;;20.01;61.25;101051.00;6013575;23;20095;-91
2021/09/02 08:39:12;;;;;;;15.85;8.32;;;;;;;20.05;61.22;101052.47;6013986;23;20027;-91
2021/09/02 08:41:38;;;;;;;17.23;9.18;;;;;;;20.10;60.84;101052.97;6040313;23;20024;-91
2021/09/02 08:44:05;;;;;;;14.85;8.23;;;;;;;20.16;61.07;101057.00;6015304;23;20487;-90
2021/09/02 08:46:33;;;;;;;15.50;8.55;;;;;;;20.20;60.71;101049.56;6015107;23;20052;-91
2021/09/02 08:49:01;;;;;;;13.77;8.52;;;;;;;20.26;60.79;101054.47;6015025;23;20030;-92
2021/09/02 08:51:28;;;;;;;11.80;7.20;;;;;;;20.30;60.37;101058.59;6015789;23;20023;-91
2021/09/02 08:53:55;;;;;;;17.45;8.70;;;;;;;20.35;60.54;101052.88;6015624;23;20027;-91
2021/09/02 08:56:23;;;;;;;15.60;8.23;;;;;;;20.40;60.47;101054.22;6015768;23;20031;-91
2021/09/02 08:58:49;;;;;;;13.52;7.72;;;;;;;20.46;60.66;101060.94;6015978;23;20039;-91
2021/09/02 09:01:16;;;;;;;13.98;8.00;;;;;;;20.52;60.39;101062.28;6015209;23;20455;-91
2021/09/02 09:03:48;;;;;;;11.75;7.90;;;;;;;20.57;60.18;101062.75;6016056;23;20019;-91
2021/09/02 09:06:27;;;;;;;12.05;7.40;;;;;;;20.64;59.82;101057.78;6016196;23;20027;-91
2021/09/02 09:08:54;;;;;;;10.10;7.00;;;;;;;20.75;59.67;101059.59;6015242;23;20028;-90
2021/09/02 09:11:25;;;;;;;9.98;6.05;;;;;;;20.81;59.76;101064.44;6015469;23;20353;-91
2021/09/02 09:14:14;;;;;;;9.10;5.22;;;;;;;20.87;59.25;101061.31;6015012;23;20026;-91
2021/09/02 09:16:50;;;;;;;11.70;6.97;;;;;;;21.01;59.71;101051.34;6039946;23;20033;-91
2021/09/02 09:19:40;;;;;;;14.18;6.70;;;;;;;21.07;59.44;101053.50;6014950;23;20360;-90
2021/09/02 09:22:12;;;;;;;10.73;6.18;;;;;;;21.19;59.21;101063.22;6015515;23;20030;-92
2021/09/02 09:24:54;;;;;;;10.25;5.78;;;;;;;21.28;58.73;101055.41;6040054;23;20026;-92
2021/09/02 09:27:31;;;;;;;10.45;6.50;;;;;;;21.41;59.12;101057.94;6014768;23;20023;-91
2021/09/02 09:30:15;;;;;;;9.63;5.75;;;;;;;21.49;58.81;101047.41;6014971;23;20023;-91
2021/09/02 09:32:44;;;;;;;12.85;7.18;;;;;;;21.65;59.21;101049.69;6015430;23;20356;-90
2021/09/02 09:35:15;;;;;;;10.38;6.15;;;;;;;21.77;58.58;101045.16;6014995;23;20019;-91
2021/09/02 09:37:45;;;;;;;12.50;6.35;;;;;;;21.91;58.52;101046.69;6015626;23;20062;-91
2021/09/02 09:40:21;;;;;;;11.55;6.82;;;;;;;22.02;57.91;101047.59;6015070;23;20058;-91
2021/09/02 09:43:00;;;;;;;10.90;6.75;;;;;;;22.11;57.79;101050.34;6014856;23;20031;-90
2021/09/02 09:45:34;;;;;;;12.27;6.70;;;;;;;22.24;56.58;101051.97;6014685;23;20452;-91
2021/09/02 09:48:01;;;;;;;12.25;6.63;;;;;;;22.36;57.27;101052.72;6014925;23;20026;-91
2021/09/02 09:50:27;;;;;;;11.05;6.45;;;;;;;22.44;56.81;101047.53;6013917;23;20079;-90
2021/09/02 09:52:54;;;;;;;13.32;6.32;;;;;;;22.51;56.07;101046.00;6015483;23;20074;-91
2021/09/02 09:55:21;;;;;;;10.55;6.30;;;;;;;22.60;56.54;101046.22;6014912;23;20027;-91
2021/09/02 09:57:48;;;;;;;10.63;6.43;;;;;;;22.67;55.99;101043.84;6039667;23;20099;-91
2021/09/02 10:00:18;;;;;;;15.30;6.38;;;;;;;22.71;56.10;101043.44;6014521;23;20038;-91
2021/09/02 10:02:51;;;;;;;11.60;6.85;;;;;;;22.77;56.16;101047.44;6014928;23;20027;-91
2021/09/02 10:05:21;;;;;;;10.82;6.68;;;;;;;22.85;55.68;101044.91;6014897;23;20020;-90
2021/09/02 10:07:50;;;;;;;12.40;6.43;;;;;;;22.91;55.13;101039.00;6014954;23;20049;-89
2021/09/02 10:10:17;;;;;;;12.57;6.47;;;;;;;23.00;55.44;101034.63;6014761;23;20083;-92
2021/09/02 10:12:46;;;;;;;11.75;6.53;;;;;;;23.12;56.40;101034.50;6040011;23;20019;-91
2021/09/02 10:15:17;;;;;;;9.73;6.20;;;;;;;23.24;56.14;101028.03;6016464;23;20347;-89
2021/09/02 10:17:45;;;;;;;13.48;6.10;;;;;;;23.40;55.61;101023.97;6015066;23;20030;-92
2021/09/02 10:20:19;;;;;;;11.10;6.25;;;;;;;23.53;54.35;101023.69;5987320;23;20325;-91
2021/09/02 10:22:48;;;;;;;12.85;6.22;;;;;;;23.68;55.00;101024.09;5986663;23;20024;-90
2021/09/02 10:25:43;;;;;;;14.25;6.38;;;;;;;23.81;55.21;101021.13;5986713;23;20015;-91
2021/09/02 10:28:17;;;;;;;10.68;5.93;;;;;;;24.00;55.38;101022.91;5987104;23;20020;-91
2021/09/02 10:30:52;;;;;;;17.52;6.35;;;;;;;24.15;55.47;101017.94;5987135;23;20023;-91
2021/09/02 10:33:37;;;;;;;12.73;5.95;;;;;;;24.26;53.83;101022.31;5987376;23;20023;-92
2021/09/02 10:36:10;;;;;;;9.93;6.57;;;;;;;24.39;52.99;101013.91;5986997;23;20023;-92
2021/09/02 10:38:39;;;;;;;;;;;;;;;24.49;54.66;101019.28;5987289;23;20023;-91
2021/09/02 10:41:08;;;;;;;8.75;5.15;;;;;;;24.62;52.99;101023.47;5986480;23;19918;-91
2021/09/02 10:43:54;;;;;;;11.07;5.95;;;;;;;24.60;53.38;101019.06;5986567;23;20027;-90
2021/09/02 10:46:34;;;;;;;12.07;5.68;;;;;;;24.63;52.15;101019.78;6011611;23;20341;-90
2021/09/02 10:49:24;;;;;;;14.43;6.15;;;;;;;24.59;52.58;101020.06;5986477;23;20038;-89
2021/09/02 10:52:04;;;;;;;8.75;5.53;;;;;;;24.61;51.59;101017.22;5985854;23;20456;-90
2021/09/02 10:54:36;;;;;;;9.75;5.20;;;;;;;24.60;52.03;101015.53;6008968;23;20531;-91
2021/09/02 10:57:10;;;;;;;7.97;5.13;;;;;;;24.68;52.76;101017.47;5986343;23;20030;-92
2021/09/02 10:59:51;;;;;;;11.27;5.70;;;;;;;24.79;53.07;101017.28;5986216;23;20360;-90
2021/09/02 11:02:17;;;;;;;10.13;5.95;;;;;;;25.01;53.14;101012.50;5985983;23;20028;-91
2021/09/02 11:04:46;;;;;;;12.38;5.78;;;;;;;25.24;54.20;101006.66;5986269;23;20024;-90
2021/09/02 11:07:13;;;;;;;7.70;5.20;;;;;;;25.52;54.03;101003.88;5985931;23;20035;-90
2021/09/02 11:09:42;;;;;;;10.43;5.68;;;;;;;25.92;53.49;101004.38;5986798;23;20031;-90
2021/09/02 11:12:12;;;;;;;6.57;4.93;;;;;;;26.40;54.41;100998.59;5986046;23;20540;-92
2021/09/02 11:14:40;;;;;;;10.90;4.97;;;;;;;26.99;53.25;101005.91;5986366;23;20076;-90
2021/09/02 11:17:07;;;;;;;7.55;4.68;;;;;;;27.56;50.43;101003.44;5987358;23;20487;-93
2021/09/02 11:19:37;;;;;;;7.65;4.65;;;;;;;27.97;48.45;101005.28;6008935;23;20019;-90
2021/09/02 11:22:08;;;;;;;9.77;5.25;;;;;;;28.19;45.08;101003.69;6014128;23;20043;-90
2021/09/02 11:24:46;;;;;;;9.02;4.57;;;;;;;28.25;44.29;101004.03;6014463;23;20023;-91
2021/09/02 11:27:30;;;;;;;8.18;4.70;;;;;;;28.10;44.74;101000.16;6013831;23;20090;-90